Time;durP1;ratioP1;P1;durP2;ratioP2;P2;SDS_P1;SDS_P2;PMS_P1;PMS_P2;Temp;Humidity;BMP_temperature;BMP_pressure;BME280_temperature;BME280_humidity;BME280_pressure;Samples;Min_cycle;Max_cycle;Signal;HPM_P1;HPM_P2
2021/10/12 00:00:49;;;;;;;17.70;12.70;;;;;;;8.01;77.42;97265.98;115887;1184;69024;-65
2021/10/12 00:03:20;;;;;;;26.00;19.10;;;;;;;7.99;76.34;97264.19;115955;1182;59582;-66
2021/10/12 00:05:50;;;;;;;18.30;13.40;;;;;;;7.97;76.74;97261.55;116105;1183;59574;-70
2021/10/12 00:08:20;;;;;;;22.30;14.90;;;;;;;7.96;74.83;97259.34;116286;1182;71385;-69
2021/10/12 00:10:50;;;;;;;16.60;12.00;;;;;;;7.96;74.94;97258.52;115943;1183;68503;-66
2021/10/12 00:13:20;;;;;;;16.30;11.70;;;;;;;7.95;76.12;97258.89;116300;1183;68283;-67
2021/10/12 00:15:49;;;;;;;17.30;13.00;;;;;;;7.96;74.59;97259.20;116248;1183;59531;-68
2021/10/12 00:18:19;;;;;;;17.00;12.80;;;;;;;7.96;75.37;97252.93;116146;1183;59503;-65
2021/10/12 00:20:50;;;;;;;20.50;15.80;;;;;;;7.95;75.61;97250.73;116102;1182;69586;-68
2021/10/12 00:23:20;;;;;;;24.40;17.60;;;;;;;7.93;77.55;97248.60;116197;1176;68430;-66
2021/10/12 00:25:49;;;;;;;;;;;;;;;7.92;76.32;97247.30;115950;1184;69092;-66
2021/10/12 00:28:20;;;;;;;20.10;13.40;;;;;;;7.91;76.92;97246.98;115916;1184;59577;-66
2021/10/12 00:30:51;;;;;;;20.00;13.10;;;;;;;7.90;76.83;97243.44;116063;1183;59583;-66
2021/10/12 00:33:22;;;;;;;19.70;14.10;;;;;;;7.90;75.88;97245.51;116032;1185;69547;-68
2021/10/12 00:35:53;;;;;;;27.70;19.00;;;;;;;7.89;76.05;97243.10;116016;1184;68368;-68
2021/10/12 00:38:24;;;;;;;21.60;15.50;;;;;;;7.88;78.58;97240.56;116021;1184;69260;-68
2021/10/12 00:40:55;;;;;;;16.20;10.50;;;;;;;7.88;76.86;97240.92;115995;1183;59585;-66
2021/10/12 00:43:27;;;;;;;18.50;12.70;;;;;;;7.88;75.85;97236.08;115998;1184;59519;-67
2021/10/12 00:45:58;;;;;;;14.70;10.20;;;;;;;7.89;74.93;97232.36;116049;1183;71455;-68
2021/10/12 00:48:28;;;;;;;;;;;;;;;7.89;74.09;97229.44;115849;1184;67531;-68
2021/10/12 00:50:59;;;;;;;15.00;10.50;;;;;;;7.89;74.95;97229.77;115942;1184;68004;-68
2021/10/12 00:53:30;;;;;;;14.60;9.30;;;;;;;7.89;75.47;97226.48;115987;1184;59515;-68
2021/10/12 00:56:00;;;;;;;11.60;7.90;;;;;;;7.89;74.86;97226.83;116035;1182;59548;-67
2021/10/12 00:58:29;;;;;;;;;;;;;;;7.89;76.25;97224.77;115980;1185;71379;-68
2021/10/12 01:01:00;;;;;;;14.90;11.10;;;;;;;7.88;76.05;97221.86;116064;1184;68354;-68
2021/10/12 01:03:32;;;;;;;24.20;18.60;;;;;;;7.87;75.02;97212.38;115956;1184;68559;-67
2021/10/12 01:06:02;;;;;;;16.90;10.90;;;;;;;7.85;76.44;97210.93;115938;1183;59561;-68
2021/10/12 01:08:32;;;;;;;13.60;9.60;;;;;;;7.84;74.56;97208.95;116274;1184;59550;-69
2021/10/12 01:11:03;;;;;;;;;;;;;;;7.84;75.22;97206.98;116412;1183;70641;-65
2021/10/12 01:13:33;;;;;;;19.90;14.40;;;;;;;7.84;75.06;97203.55;116130;1184;67405;-67
2021/10/12 01:16:04;;;;;;;18.30;12.20;;;;;;;7.84;75.68;97203.73;116032;1183;69218;-66
2021/10/12 01:18:36;;;;;;;15.60;12.70;;;;;;;7.84;75.47;97204.74;115888;1183;59572;-67
2021/10/12 01:21:06;;;;;;;12.50;8.80;;;;;;;7.84;76.18;97197.00;115940;1184;59544;-67
2021/10/12 01:23:37;;;;;;;16.00;10.80;;;;;;;7.83;74.80;97192.21;116004;1184;70609;-66
2021/10/12 01:26:07;;;;;;;13.50;9.80;;;;;;;7.82;76.03;97193.09;116024;1184;68644;-65
2021/10/12 01:28:37;;;;;;;;;;;;;;;7.81;75.68;97192.11;115997;1183;68557;-66
2021/10/12 01:31:13;;;;;;;16.90;12.20;;;;;;;7.79;76.68;97188.80;116050;1184;59542;-66
2021/10/12 01:33:43;;;;;;;14.30;9.90;;;;;;;7.78;76.12;97188.89;116070;1183;59535;-67
2021/10/12 01:36:13;;;;;;;14.50;9.50;;;;;;;7.77;74.65;97186.33;116084;1184;70632;-69
2021/10/12 01:38:43;;;;;;;;;;;;;;;7.76;74.80;97184.46;116299;1183;68435;-67
2021/10/12 01:41:14;;;;;;;14.60;11.40;;;;;;;7.76;75.57;97184.14;116122;1184;69620;-67
2021/10/12 01:43:45;;;;;;;14.80;11.20;;;;;;;7.75;77.07;97180.92;116160;1183;59860;-67
2021/10/12 01:46:14;;;;;;;14.90;10.00;;;;;;;7.74;76.48;97179.75;115957;1184;59491;-67
2021/10/12 01:48:45;;;;;;;16.30;11.30;;;;;;;7.74;75.53;97175.64;116125;1183;70615;-67
2021/10/12 01:51:15;;;;;;;15.50;11.00;;;;;;;7.73;76.72;97173.39;116067;1184;68218;-67
2021/10/12 01:53:45;;;;;;;20.40;14.90;;;;;;;7.72;78.05;97172.79;116285;1184;69253;-67
2021/10/12 01:56:15;;;;;;;14.30;9.60;;;;;;;7.71;77.05;97170.41;116336;1184;59532;-68
2021/10/12 01:58:50;;;;;;;20.40;14.50;;;;;;;7.70;78.10;97168.95;116138;1184;59515;-66
2021/10/12 02:01:22;;;;;;;23.70;15.20;;;;;;;7.68;78.79;97173.75;116074;1184;71784;-66
2021/10/12 02:03:52;;;;;;;11.00;7.40;;;;;;;7.67;77.32;97171.55;116345;1182;68623;-65
2021/10/12 02:06:22;;;;;;;15.20;10.70;;;;;;;7.67;76.50;97169.98;116127;1183;68459;-66
2021/10/12 02:08:52;;;;;;;18.60;12.00;;;;;;;7.65;76.28;97163.80;115989;1184;59611;-66
2021/10/12 02:11:22;;;;;;;12.10;8.50;;;;;;;7.66;76.76;97159.64;116186;1183;59622;-65
2021/10/12 02:13:52;;;;;;;16.10;10.70;;;;;;;7.65;76.09;97153.75;116217;1182;70641;-67
2021/10/12 02:16:23;;;;;;;23.50;14.20;;;;;;;7.65;77.30;97153.39;116183;1184;68392;-69
2021/10/12 02:18:53;;;;;;;20.00;13.00;;;;;;;7.65;77.56;97148.23;116181;1184;69163;-66
2021/10/12 02:21:24;;;;;;;18.30;14.70;;;;;;;7.65;77.67;97148.08;116126;1184;59561;-68
2021/10/12 02:23:54;;;;;;;15.30;10.50;;;;;;;7.65;77.80;97147.70;116194;1183;59560;-66
2021/10/12 02:26:24;;;;;;;19.00;13.10;;;;;;;7.65;77.41;97145.80;116167;1183;71284;-69
2021/10/12 02:28:55;;;;;;;18.20;13.50;;;;;;;7.64;77.43;97142.89;116216;1183;67659;-68
2021/10/12 02:31:24;;;;;;;19.80;15.10;;;;;;;7.64;77.11;97144.67;116151;1184;68445;-68
2021/10/12 02:33:55;;;;;;;14.80;10.60;;;;;;;7.63;74.88;97139.34;116354;1182;59570;-68
2021/10/12 02:36:25;;;;;;;13.20;9.90;;;;;;;7.63;75.06;97138.85;116356;1182;59530;-67
2021/10/12 02:38:55;;;;;;;17.10;11.60;;;;;;;7.60;75.76;97137.65;116101;1174;70614;-67
2021/10/12 02:41:25;;;;;;;16.40;12.80;;;;;;;7.57;77.85;97138.03;116193;1183;68450;-68
2021/10/12 02:43:54;;;;;;;17.60;12.70;;;;;;;7.56;77.51;97133.25;116162;1184;68446;-68
2021/10/12 02:46:24;;;;;;;21.60;15.10;;;;;;;7.54;78.35;97126.94;116309;1183;59564;-70
2021/10/12 02:48:54;;;;;;;21.90;14.20;;;;;;;7.53;79.29;97123.90;116261;1184;59615;-67
2021/10/12 02:51:24;;;;;;;29.00;20.40;;;;;;;7.51;80.79;97122.13;116081;1184;70486;-68
2021/10/12 02:53:55;;;;;;;19.90;14.80;;;;;;;7.47;81.49;97120.61;116120;1183;68254;-65
2021/10/12 02:56:25;;;;;;;;;;;;;;;7.47;80.11;97116.14;115946;1184;69553;-67
2021/10/12 02:58:55;;;;;;;18.70;13.80;;;;;;;7.47;80.73;97111.66;116083;1184;59565;-66
2021/10/12 03:01:25;;;;;;;26.00;17.80;;;;;;;7.45;80.37;97107.23;116061;1184;59572;-66
2021/10/12 03:03:55;;;;;;;19.80;15.60;;;;;;;7.45;80.01;97110.55;116214;1183;71449;-67
2021/10/12 03:06:25;;;;;;;18.20;11.80;;;;;;;7.45;79.58;97109.84;116136;1183;68361;-69
2021/10/12 03:08:59;;;;;;;24.70;16.70;;;;;;;7.45;79.91;97110.21;116099;1183;68469;-65
2021/10/12 03:11:30;;;;;;;25.10;18.40;;;;;;;7.42;81.61;97115.91;116113;1182;59569;-67
2021/10/12 03:14:00;;;;;;;;;;;;;;;7.33;82.78;97114.09;116245;1183;59597;-69
2021/10/12 03:16:30;;;;;;;;;;;;;;;7.28;83.06;97113.20;116187;1184;71390;-67
2021/10/12 03:19:00;;;;;;;28.50;19.90;;;;;;;7.15;83.94;97117.31;116238;1184;68327;-69
2021/10/12 03:21:34;;;;;;;32.00;21.40;;;;;;;7.03;84.76;97116.17;116019;1183;69241;-66
2021/10/12 03:24:04;;;;;;;37.60;21.90;;;;;;;6.97;85.29;97113.43;116370;1184;59508;-69
2021/10/12 03:26:34;;;;;;;19.30;12.60;;;;;;;6.96;84.56;97110.90;116454;1176;59558;-70
2021/10/12 03:29:04;;;;;;;16.30;10.40;;;;;;;6.99;82.82;97107.73;116326;1183;71416;-68
2021/10/12 03:31:34;;;;;;;16.60;13.20;;;;;;;7.04;81.36;97107.78;116375;1182;68340;-66
2021/10/12 03:34:04;;;;;;;19.10;11.90;;;;;;;7.09;80.91;97108.01;116141;1184;69120;-66
2021/10/12 03:36:33;;;;;;;;;;;;;;;7.13;80.61;97107.91;116089;1182;59561;-65
2021/10/12 03:39:04;;;;;;;12.80;7.60;;;;;;;7.17;80.82;97105.45;116233;1182;59558;-67
2021/10/12 03:41:33;;;;;;;16.00;10.20;;;;;;;7.20;80.07;97105.56;116209;1174;71622;-66
2021/10/12 03:44:04;;;;;;;14.10;9.80;;;;;;;7.23;79.57;97104.85;116201;1183;68544;-68
2021/10/12 03:46:33;;;;;;;16.30;10.50;;;;;;;7.25;79.18;97108.35;116203;1183;68729;-67
2021/10/12 03:49:03;;;;;;;;;;;;;;;7.28;79.15;97108.38;116257;1182;59542;-67
2021/10/12 03:51:32;;;;;;;11.80;8.40;;;;;;;7.29;79.22;97104.63;116184;1182;59538;-65
2021/10/12 03:54:01;;;;;;;16.40;10.90;;;;;;;7.32;78.24;97102.93;116201;1185;69709;-66
2021/10/12 03:56:31;;;;;;;16.50;11.50;;;;;;;7.34;78.41;97101.58;116231;1182;67510;-70
2021/10/12 03:59:00;;;;;;;15.10;10.80;;;;;;;7.35;78.46;97102.67;116419;1183;68125;-67
2021/10/12 04:01:30;;;;;;;15.00;9.90;;;;;;;7.37;78.35;97101.02;116099;1183;59501;-66
2021/10/12 04:04:01;;;;;;;12.70;9.60;;;;;;;7.38;78.08;97100.56;116176;1183;59561;-68
2021/10/12 04:06:31;;;;;;;28.10;19.10;;;;;;;7.40;78.30;97100.11;116161;1183;70778;-66
2021/10/12 04:09:00;;;;;;;15.90;11.30;;;;;;;7.39;80.75;97099.31;115962;1184;68487;-66
2021/10/12 04:11:30;;;;;;;12.20;8.10;;;;;;;7.39;79.13;97096.35;116216;1184;69324;-67
2021/10/12 04:13:59;;;;;;;12.10;9.00;;;;;;;7.40;77.96;97094.91;116208;1183;59553;-67
2021/10/12 04:16:30;;;;;;;20.20;14.60;;;;;;;7.41;77.55;97090.84;116182;1183;59544;-65
2021/10/12 04:19:00;;;;;;;13.90;9.10;;;;;;;7.42;78.16;97094.08;115994;1184;71234;-67
2021/10/12 04:21:29;;;;;;;10.90;7.10;;;;;;;7.42;77.59;97089.55;116227;1182;68173;-67
2021/10/12 04:23:59;;;;;;;12.70;9.40;;;;;;;7.43;78.95;97090.73;116187;1182;67864;-67
2021/10/12 04:26:28;;;;;;;14.90;10.40;;;;;;;7.43;77.95;97088.11;116048;1184;59553;-67
2021/10/12 04:28:59;;;;;;;13.20;8.70;;;;;;;7.44;77.62;97087.72;116003;1184;59521;-66
2021/10/12 04:31:28;;;;;;;11.50;7.10;;;;;;;7.45;77.39;97083.47;116053;1183;71256;-66
2021/10/12 04:34:04;;;;;;;15.20;10.30;;;;;;;7.46;77.12;97081.19;116038;1184;67657;-67
2021/10/12 04:36:33;;;;;;;20.40;15.40;;;;;;;7.46;78.03;97081.02;116242;1184;68802;-67
2021/10/12 04:39:04;;;;;;;13.80;10.00;;;;;;;7.45;78.74;97077.96;116181;1183;59572;-66
2021/10/12 04:41:34;;;;;;;14.00;9.50;;;;;;;7.46;77.68;97075.33;116227;1182;59548;-65
2021/10/12 04:44:06;;;;;;;16.00;11.00;;;;;;;7.46;77.66;97067.83;116166;1184;71476;-65
2021/10/12 04:46:38;;;;;;;9.80;8.10;;;;;;;7.47;77.65;97070.67;116241;1183;68466;-65
2021/10/12 04:49:08;;;;;;;12.60;8.40;;;;;;;7.48;76.95;97074.27;116219;1184;68770;-65
2021/10/12 04:51:38;;;;;;;15.10;9.50;;;;;;;7.49;77.02;97076.99;116155;1184;59974;-67
2021/10/12 04:54:07;;;;;;;12.50;8.80;;;;;;;7.50;77.09;97073.67;116256;1183;59516;-66
2021/10/12 04:56:37;;;;;;;15.30;10.70;;;;;;;7.50;77.24;97069.44;116111;1184;71416;-68
2021/10/12 04:59:07;;;;;;;12.50;8.00;;;;;;;7.51;77.87;97063.98;115983;1184;67258;-67
2021/10/12 05:01:37;;;;;;;14.30;9.40;;;;;;;7.53;77.03;97066.48;116135;1184;67485;-67
2021/10/12 05:04:06;;;;;;;12.90;9.30;;;;;;;7.53;76.75;97064.02;116076;1184;59564;-67
2021/10/12 05:06:35;;;;;;;24.30;16.60;;;;;;;7.55;77.02;97070.52;116140;1184;59554;-68
2021/10/12 05:09:04;;;;;;;26.50;18.30;;;;;;;7.56;78.73;97072.71;116154;1183;71348;-68
2021/10/12 05:11:34;;;;;;;31.40;20.30;;;;;;;7.54;80.42;97074.91;116185;1183;67438;-66
2021/10/12 05:14:04;;;;;;;23.80;15.70;;;;;;;7.49;81.53;97074.88;116286;1184;69484;-69
2021/10/12 05:16:34;;;;;;;28.10;21.10;;;;;;;7.48;80.72;97076.89;116316;1184;59522;-70
2021/10/12 05:19:03;;;;;;;29.90;21.30;;;;;;;7.46;81.14;97070.92;116350;1182;59855;-67
2021/10/12 05:21:32;;;;;;;29.00;19.60;;;;;;;7.46;81.16;97072.81;116318;1183;70416;-66
2021/10/12 05:24:01;;;;;;;23.80;16.80;;;;;;;7.48;81.38;97076.38;116209;1184;68592;-65
2021/10/12 05:26:30;;;;;;;17.20;11.40;;;;;;;7.48;81.72;97076.88;116291;1183;68491;-67
2021/10/12 05:28:59;;;;;;;14.00;10.10;;;;;;;7.49;81.29;97074.73;116191;1184;59624;-66
2021/10/12 05:31:29;;;;;;;29.50;21.00;;;;;;;7.49;81.69;97075.23;116232;1182;59521;-66
2021/10/12 05:33:58;;;;;;;19.30;12.30;;;;;;;7.47;81.33;97076.41;116193;1182;70604;-64
2021/10/12 05:36:28;;;;;;;28.90;21.30;;;;;;;7.50;79.74;97078.34;115974;1184;68178;-67
2021/10/12 05:38:58;;;;;;;27.30;18.10;;;;;;;7.50;82.46;97081.09;116242;1183;69444;-69
2021/10/12 05:41:27;;;;;;;33.30;22.20;;;;;;;7.49;81.30;97077.32;116174;1184;59552;-67
2021/10/12 05:43:56;;;;;;;15.80;11.90;;;;;;;7.52;80.67;97078.02;116127;1182;59500;-68
2021/10/12 05:46:26;;;;;;;14.10;10.70;;;;;;;7.56;79.63;97076.90;115915;1184;71203;-66
2021/10/12 05:48:57;;;;;;;18.60;13.00;;;;;;;7.58;79.34;97076.88;116023;1184;67673;-69
2021/10/12 05:51:27;;;;;;;13.80;10.10;;;;;;;7.62;78.99;97077.48;115977;1184;69386;-68
2021/10/12 05:53:58;;;;;;;;;;;;;;;7.66;79.30;97075.46;116139;1184;59576;-66
2021/10/12 05:56:37;;;;;;;31.50;22.20;;;;;;;7.69;78.93;97078.09;116171;1183;59572;-68
2021/10/12 05:59:07;;;;;;;25.50;17.40;;;;;;;7.71;80.98;97074.16;116364;1183;71527;-67
2021/10/12 06:01:36;;;;;;;30.30;21.40;;;;;;;7.72;80.15;97075.09;116204;1182;67887;-67
2021/10/12 06:04:06;;;;;;;;;;;;;;;7.74;80.70;97078.98;116383;1182;69194;-67
2021/10/12 06:06:35;;;;;;;32.00;22.70;;;;;;;7.76;80.85;97077.61;116187;1184;59595;-67
2021/10/12 06:09:05;;;;;;;35.40;22.90;;;;;;;7.76;81.84;97073.46;116244;1184;59563;-67
2021/10/12 06:11:37;;;;;;;21.70;14.60;;;;;;;7.74;82.20;97074.30;116055;1184;71716;-68
2021/10/12 06:14:06;;;;;;;18.90;13.80;;;;;;;7.76;80.81;97070.20;116240;1183;68372;-67
2021/10/12 06:16:36;;;;;;;32.70;20.50;;;;;;;7.81;80.94;97063.94;116192;1184;67750;-66
2021/10/12 06:19:05;;;;;;;14.70;9.60;;;;;;;7.88;81.62;97065.02;116170;1184;59520;-68
2021/10/12 06:21:34;;;;;;;13.30;9.70;;;;;;;7.96;80.11;97065.00;116201;1183;60019;-67
2021/10/12 06:24:04;;;;;;;17.70;13.00;;;;;;;8.03;79.19;97063.13;116215;1183;71382;-68
2021/10/12 06:26:34;;;;;;;19.80;14.10;;;;;;;8.10;79.50;97068.22;116220;1174;68426;-67
2021/10/12 06:29:03;;;;;;;17.50;12.20;;;;;;;8.15;78.68;97072.70;116170;1184;69546;-65
2021/10/12 06:31:32;;;;;;;16.30;10.40;;;;;;;8.21;78.31;97076.67;115978;1184;59606;-69
2021/10/12 06:34:01;;;;;;;29.50;22.10;;;;;;;8.24;78.29;97077.49;116360;1183;59571;-67
2021/10/12 06:36:31;;;;;;;32.30;24.40;;;;;;;8.25;78.07;97074.30;116056;1184;71557;-66
2021/10/12 06:39:00;;;;;;;34.80;24.10;;;;;;;8.25;78.06;97074.86;116218;1183;68557;-65
2021/10/12 06:41:29;;;;;;;34.10;23.10;;;;;;;8.18;78.58;97078.77;116255;1179;69295;-65
2021/10/12 06:44:15;;;;;;;28.30;19.50;;;;;;;8.15;79.07;97080.91;116242;1183;59629;-68
2021/10/12 06:46:44;;;;;;;21.00;14.20;;;;;;;8.11;78.91;97078.52;115980;1184;59557;-67
2021/10/12 06:49:14;;;;;;;20.70;14.50;;;;;;;8.12;78.02;97076.55;116230;1183;71505;-67
2021/10/12 06:51:43;;;;;;;26.00;18.00;;;;;;;8.15;77.31;97071.84;116203;1184;68488;-67
2021/10/12 06:54:20;;;;;;;24.90;17.40;;;;;;;8.17;77.21;97072.75;116148;1184;68461;-67
2021/10/12 06:56:49;;;;;;;22.70;15.50;;;;;;;8.20;77.71;97071.67;116241;1183;59535;-68
2021/10/12 06:59:19;;;;;;;18.00;12.50;;;;;;;8.24;77.83;97070.73;116332;1182;59543;-68
2021/10/12 07:01:49;;;;;;;21.80;13.60;;;;;;;8.28;77.26;97073.78;116309;1183;71442;-67
2021/10/12 07:04:21;;;;;;;16.90;12.90;;;;;;;8.29;77.71;97078.00;116306;1183;68437;-66
2021/10/12 07:06:51;;;;;;;18.00;12.80;;;;;;;8.28;76.77;97082.40;115962;1184;68632;-69
2021/10/12 07:09:20;;;;;;;34.90;24.70;;;;;;;8.25;77.52;97083.70;116210;1184;59570;-67
2021/10/12 07:11:49;;;;;;;28.80;19.60;;;;;;;8.17;77.92;97077.45;116293;1184;59572;-70
2021/10/12 07:14:18;;;;;;;36.40;25.80;;;;;;;8.14;78.02;97082.66;116284;1183;71369;-66
2021/10/12 07:16:47;;;;;;;26.90;18.50;;;;;;;8.10;78.49;97085.04;116287;1183;67731;-68
2021/10/12 07:19:18;;;;;;;28.00;22.10;;;;;;;8.05;78.58;97087.29;116237;1183;68695;-67
2021/10/12 07:21:48;;;;;;;34.90;25.00;;;;;;;8.02;78.27;97085.95;116199;1183;59528;-67
2021/10/12 07:24:18;;;;;;;25.90;18.20;;;;;;;7.96;80.02;97089.27;116255;1183;59542;-66
2021/10/12 07:26:48;;;;;;;33.90;24.20;;;;;;;7.95;79.83;97088.86;116241;1181;71211;-66
2021/10/12 07:29:18;;;;;;;25.90;17.50;;;;;;;7.91;79.60;97081.98;116048;1184;68424;-65
2021/10/12 07:31:47;;;;;;;;;;;;;;;7.95;78.84;97080.20;116195;1184;69279;-65
2021/10/12 07:34:16;;;;;;;51.60;34.10;;;;;;;7.99;78.52;97077.61;116025;1184;59564;-69
2021/10/12 07:36:46;;;;;;;40.30;27.60;;;;;;;8.04;78.22;97080.77;116255;1182;59545;-67
2021/10/12 07:39:15;;;;;;;36.20;25.40;;;;;;;8.06;79.87;97081.30;116140;1184;70728;-67
2021/10/12 07:41:44;;;;;;;33.10;22.10;;;;;;;8.09;80.09;97079.37;116186;1184;67637;-65
2021/10/12 07:44:14;;;;;;;26.30;18.30;;;;;;;8.11;79.12;97077.31;116225;1184;67838;-65
2021/10/12 07:46:43;;;;;;;19.80;14.80;;;;;;;8.16;78.33;97075.08;116221;1182;59541;-67
2021/10/12 07:49:12;;;;;;;23.30;16.20;;;;;;;8.21;78.06;97071.63;116020;1184;59550;-67
2021/10/12 07:51:42;;;;;;;29.40;21.20;;;;;;;8.26;78.12;97076.50;116370;1183;71511;-65
2021/10/12 07:54:18;;;;;;;38.80;26.40;;;;;;;8.28;79.83;97073.61;116267;1184;68414;-65
2021/10/12 07:56:48;;;;;;;34.80;22.50;;;;;;;8.27;79.70;97077.83;116325;1183;69751;-69
2021/10/12 07:59:18;;;;;;;37.00;25.00;;;;;;;8.26;80.04;97078.08;116320;1184;59542;-67
2021/10/12 08:01:47;;;;;;;42.30;29.10;;;;;;;8.20;80.82;97077.77;115998;1184;59541;-67
2021/10/12 08:04:16;;;;;;;43.10;28.80;;;;;;;8.11;81.42;97077.70;116279;1183;71396;-65
2021/10/12 08:06:45;;;;;;;31.10;21.50;;;;;;;8.03;81.71;97075.98;116210;1183;69081;-66
2021/10/12 08:09:16;;;;;;;23.80;16.20;;;;;;;8.05;80.58;97074.43;116011;1184;69298;-68
2021/10/12 08:11:44;;;;;;;;;;;;;;;8.09;80.96;97066.05;116223;1182;59577;-66
2021/10/12 08:14:18;;;;;;;28.60;19.20;;;;;;;8.10;81.13;97063.37;116205;1184;59564;-66
2021/10/12 08:16:47;;;;;;;25.70;17.20;;;;;;;8.13;80.01;97062.44;116246;1184;71435;-67
2021/10/12 08:19:16;;;;;;;39.70;27.90;;;;;;;8.15;80.49;97057.61;116317;1184;67996;-68
2021/10/12 08:21:45;;;;;;;26.20;18.80;;;;;;;8.13;81.04;97055.16;116305;1183;68432;-67
2021/10/12 08:24:17;;;;;;;30.40;21.40;;;;;;;8.17;80.89;97053.33;116295;1184;59548;-68
2021/10/12 08:26:49;;;;;;;35.60;28.10;;;;;;;8.20;80.93;97047.22;116292;1183;59533;-69
2021/10/12 08:29:19;;;;;;;34.30;26.70;;;;;;;8.17;81.99;97047.63;116332;1183;70731;-67
2021/10/12 08:31:49;;;;;;;31.00;24.50;;;;;;;8.17;81.39;97047.57;116206;1183;67863;-67
2021/10/12 08:34:19;;;;;;;23.20;17.90;;;;;;;8.20;81.16;97042.40;116200;1183;69655;-69
2021/10/12 08:36:48;;;;;;;26.30;19.80;;;;;;;8.24;80.93;97043.80;116325;1183;59994;-64
2021/10/12 08:39:18;;;;;;;19.90;14.60;;;;;;;8.29;80.59;97044.88;115967;1184;59535;-67
2021/10/12 08:41:55;;;;;;;26.50;19.20;;;;;;;8.33;80.52;97042.36;116193;1183;71492;-67
2021/10/12 08:44:24;;;;;;;24.00;17.20;;;;;;;8.35;80.30;97045.64;116139;1184;68264;-68
2021/10/12 08:46:55;;;;;;;29.70;22.90;;;;;;;8.37;80.09;97048.52;116082;1184;69165;-69
2021/10/12 08:49:25;;;;;;;22.10;17.00;;;;;;;8.33;80.35;97048.76;116018;1184;59516;-68
2021/10/12 08:51:54;;;;;;;20.90;15.10;;;;;;;8.34;80.22;97049.73;116337;1183;59624;-69
2021/10/12 08:54:22;;;;;;;29.80;20.60;;;;;;;8.34;80.23;97052.48;116367;1183;71442;-67
2021/10/12 08:56:54;;;;;;;32.20;23.60;;;;;;;8.32;80.99;97052.12;116063;1184;68129;-64
2021/10/12 08:59:23;;;;;;;19.80;15.60;;;;;;;8.31;80.34;97049.77;116238;1183;68448;-66
2021/10/12 09:02:02;;;;;;;16.10;12.00;;;;;;;8.34;79.56;97047.43;116262;1184;59555;-66
2021/10/12 09:04:40;;;;;;;15.90;11.00;;;;;;;8.41;79.36;97047.70;116271;1184;59557;-66
2021/10/12 09:07:27;;;;;;;16.30;11.80;;;;;;;8.49;79.37;97041.04;116277;1183;70637;-66
2021/10/12 09:09:57;;;;;;;14.90;10.10;;;;;;;8.58;78.60;97040.42;116068;1183;68199;-67
2021/10/12 09:12:43;;;;;;;14.60;10.00;;;;;;;8.66;78.26;97040.91;116253;1184;68557;-68
2021/10/12 09:15:12;;;;;;;17.00;12.50;;;;;;;8.72;78.07;97038.21;116260;1183;59899;-68
2021/10/12 09:17:43;;;;;;;16.90;12.50;;;;;;;8.78;78.17;97035.73;116128;1183;59594;-67
2021/10/12 09:20:12;;;;;;;15.90;12.90;;;;;;;8.83;79.59;97034.17;116258;1183;71277;-67
2021/10/12 09:23:02;;;;;;;11.60;8.90;;;;;;;8.88;79.34;97032.02;116255;1183;67776;-67
2021/10/12 09:25:44;;;;;;;19.80;14.50;;;;;;;8.93;79.54;97028.70;116073;1184;69281;-67
2021/10/12 09:28:24;;;;;;;22.40;17.60;;;;;;;8.97;79.15;97027.35;116332;1182;59585;-66
2021/10/12 09:31:00;;;;;;;22.20;16.80;;;;;;;9.02;78.78;97028.23;116277;1183;59521;-67
2021/10/12 09:33:29;;;;;;;14.80;12.40;;;;;;;9.06;78.98;97029.02;116207;1183;72108;-68
2021/10/12 09:35:58;;;;;;;20.70;14.30;;;;;;;9.10;78.74;97022.59;116057;1184;67955;-67
2021/10/12 09:38:28;;;;;;;15.00;11.20;;;;;;;9.11;79.10;97021.52;116205;1184;70583;-69
2021/10/12 09:41:07;;;;;;;14.70;11.10;;;;;;;9.15;78.29;97017.92;116353;1182;59563;-68
2021/10/12 09:43:36;;;;;;;12.40;9.90;;;;;;;9.19;78.00;97021.27;116114;1183;59473;-67
2021/10/12 09:46:21;;;;;;;18.30;15.30;;;;;;;9.22;77.60;97025.44;116318;1183;70623;-67
2021/10/12 09:48:50;;;;;;;13.40;10.70;;;;;;;9.25;77.63;97020.67;116295;1183;68340;-69
2021/10/12 09:51:19;;;;;;;12.60;10.00;;;;;;;9.28;77.01;97021.86;116163;1184;68542;-68
2021/10/12 09:53:48;;;;;;;8.80;7.40;;;;;;;9.31;76.84;97018.45;116283;1183;59564;-68
2021/10/12 09:56:17;;;;;;;13.70;9.30;;;;;;;9.36;76.76;97015.33;116291;1183;59927;-68
2021/10/12 09:58:48;;;;;;;11.90;9.30;;;;;;;9.41;76.79;97012.15;116290;1183;71443;-70
2021/10/12 10:01:18;;;;;;;16.10;12.90;;;;;;;9.53;77.34;97010.59;116248;1183;67709;-67
2021/10/12 10:03:48;;;;;;;;;;;;;;;9.65;77.58;97007.54;116446;1183;69453;-66
2021/10/12 10:06:21;;;;;;;9.30;6.90;;;;;;;9.78;77.04;97002.96;116305;1182;59559;-67
2021/10/12 10:08:53;;;;;;;12.80;11.20;;;;;;;9.85;76.38;97002.08;116328;1176;59545;-66
2021/10/12 10:11:44;;;;;;;16.20;11.50;;;;;;;9.91;76.70;96993.90;116180;1183;71650;-66
2021/10/12 10:14:14;;;;;;;20.00;16.10;;;;;;;9.97;76.15;96996.59;116140;1183;67622;-68
2021/10/12 10:16:51;;;;;;;10.70;8.30;;;;;;;10.01;76.06;96989.89;116202;1184;69481;-67
2021/10/12 10:19:23;;;;;;;14.80;10.80;;;;;;;10.02;75.92;96983.36;116126;1184;60582;-67
2021/10/12 10:21:53;;;;;;;14.20;10.60;;;;;;;10.03;75.85;96982.89;116097;1184;59571;-67
2021/10/12 10:24:55;;;;;;;17.00;11.50;;;;;;;10.06;75.70;96985.34;116264;1183;70555;-66
2021/10/12 10:27:32;;;;;;;17.40;14.10;;;;;;;10.06;75.51;96981.96;116155;1183;68333;-67
2021/10/12 10:30:20;;;;;;;14.50;10.60;;;;;;;10.09;75.27;96979.13;116296;1184;68437;-68
2021/10/12 10:33:00;;;;;;;13.30;10.50;;;;;;;10.18;75.47;96972.39;116325;1183;59574;-67
2021/10/12 10:35:43;;;;;;;;;;;;;;;10.25;75.16;96967.86;116389;1184;59539;-69
2021/10/12 10:38:21;;;;;;;13.40;9.80;;;;;;;10.30;74.59;96961.39;116325;1183;71716;-69
2021/10/12 10:41:03;;;;;;;17.00;13.30;;;;;;;10.37;75.14;96964.27;116301;1183;69000;-68
2021/10/12 10:43:55;;;;;;;15.40;10.40;;;;;;;10.45;75.35;96963.33;116147;1184;69278;-67
2021/10/12 10:46:33;;;;;;;17.50;13.50;;;;;;;10.55;74.60;96968.56;116047;1184;59569;-66
2021/10/12 10:49:12;;;;;;;12.80;10.20;;;;;;;10.62;74.07;96964.73;116189;1183;59560;-69
2021/10/12 10:52:09;;;;;;;18.60;13.50;;;;;;;10.70;74.22;96963.23;116198;1184;71400;-69
2021/10/12 10:54:44;;;;;;;16.80;12.30;;;;;;;10.76;74.21;96957.33;116110;1184;67706;-68
2021/10/12 10:57:16;;;;;;;14.50;11.10;;;;;;;10.83;73.87;96959.38;116319;1183;68592;-68
2021/10/12 11:00:08;;;;;;;20.50;15.50;;;;;;;10.91;73.70;96957.02;116139;1183;59597;-69
2021/10/12 11:02:37;;;;;;;17.00;12.50;;;;;;;10.95;73.27;96950.93;116334;1181;59535;-69
2021/10/12 11:05:06;;;;;;;15.50;12.60;;;;;;;10.99;73.52;96948.12;116372;1184;71846;-66
2021/10/12 11:07:35;;;;;;;16.80;10.30;;;;;;;11.04;72.84;96947.55;116242;1183;68501;-68
2021/10/12 11:10:05;;;;;;;12.70;8.90;;;;;;;11.08;72.95;96947.02;116313;1182;69060;-67
2021/10/12 11:12:40;;;;;;;17.00;13.90;;;;;;;11.09;72.83;96939.79;116222;1184;59549;-68
2021/10/12 11:15:09;;;;;;;19.20;14.20;;;;;;;11.06;72.67;96934.30;116215;1183;59530;-65
2021/10/12 11:17:38;;;;;;;16.70;12.90;;;;;;;10.95;72.97;96928.19;116323;1184;70764;-71
2021/10/12 11:20:13;;;;;;;19.50;15.10;;;;;;;10.86;72.87;96921.34;116176;1184;68655;-70
2021/10/12 11:22:44;;;;;;;17.10;13.00;;;;;;;10.69;73.63;96916.95;116335;1182;67528;-69
2021/10/12 11:25:12;;;;;;;18.30;14.90;;;;;;;10.49;74.44;96913.33;116380;1183;59977;-70
2021/10/12 11:27:46;;;;;;;14.30;10.60;;;;;;;10.37;74.00;96916.05;116303;1183;59545;-68
2021/10/12 11:30:16;;;;;;;16.90;12.30;;;;;;;10.25;74.88;96912.45;116346;1183;71472;-69
2021/10/12 11:32:55;;;;;;;22.80;17.40;;;;;;;10.16;74.71;96914.15;116378;1183;67815;-70
2021/10/12 11:35:38;;;;;;;17.90;14.70;;;;;;;10.09;74.91;96913.48;116358;1182;69240;-68
2021/10/12 11:38:08;;;;;;;17.50;14.00;;;;;;;10.03;75.05;96909.83;116097;1184;59580;-67
2021/10/12 11:40:37;;;;;;;14.30;11.40;;;;;;;9.96;74.37;96912.46;115971;1184;59538;-68